sensor_id;sensor_type;location;lat;lon;timestamp;P1;durP1;ratioP1;P2;durP2;ratioP2
69856;SDS011;57147;53.582;10.112;2023-04-08T00:03:35;17.27;;;10.20;;
69856;SDS011;57147;53.582;10.112;2023-04-08T00:08:36;16.40;;;11.10;;
69856;SDS011;57147;53.582;10.112;2023-04-08T00:13:36;16.42;;;10.52;;
69856;SDS011;57147;53.582;10.112;2023-04-08T00:18:39;19.40;;;11.15;;
69856;SDS011;57147;53.582;10.112;2023-04-08T00:23:40;15.68;;;9.77;;
69856;SDS011;57147;53.582;10.112;2023-04-08T00:28:41;16.02;;;9.82;;
69856;SDS011;57147;53.582;10.112;2023-04-08T00:33:44;14.52;;;9.93;;
69856;SDS011;57147;53.582;10.112;2023-04-08T00:38:44;14.10;;;9.60;;
69856;SDS011;57147;53.582;10.112;2023-04-08T00:43:45;14.95;;;9.77;;
69856;SDS011;57147;53.582;10.112;2023-04-08T00:48:48;15.32;;;8.50;;
69856;SDS011;57147;53.582;10.112;2023-04-08T00:53:49;14.80;;;9.93;;
69856;SDS011;57147;53.582;10.112;2023-04-08T00:58:50;14.82;;;8.88;;
69856;SDS011;57147;53.582;10.112;2023-04-08T01:03:55;13.65;;;9.15;;
69856;SDS011;57147;53.582;10.112;2023-04-08T01:09:01;14.88;;;9.93;;
69856;SDS011;57147;53.582;10.112;2023-04-08T01:14:05;12.50;;;8.73;;
69856;SDS011;57147;53.582;10.112;2023-04-08T01:19:13;12.70;;;8.55;;
69856;SDS011;57147;53.582;10.112;2023-04-08T01:24:17;16.27;;;10.20;;
69856;SDS011;57147;53.582;10.112;2023-04-08T01:29:25;15.85;;;8.52;;
69856;SDS011;57147;53.582;10.112;2023-04-08T01:34:27;15.02;;;9.32;;
69856;SDS011;57147;53.582;10.112;2023-04-08T01:39:29;14.93;;;10.38;;
69856;SDS011;57147;53.582;10.112;2023-04-08T01:44:34;16.10;;;9.88;;
69856;SDS011;57147;53.582;10.112;2023-04-08T01:49:35;13.43;;;9.02;;
69856;SDS011;57147;53.582;10.112;2023-04-08T01:54:37;16.27;;;9.68;;
69856;SDS011;57147;53.582;10.112;2023-04-08T01:59:40;14.20;;;9.75;;
69856;SDS011;57147;53.582;10.112;2023-04-08T02:04:42;14.18;;;8.77;;
69856;SDS011;57147;53.582;10.112;2023-04-08T02:09:42;14.25;;;9.65;;
69856;SDS011;57147;53.582;10.112;2023-04-08T02:14:46;13.40;;;9.43;;
69856;SDS011;57147;53.582;10.112;2023-04-08T02:19:47;13.50;;;9.23;;
69856;SDS011;57147;53.582;10.112;2023-04-08T02:24:56;14.25;;;9.43;;
69856;SDS011;57147;53.582;10.112;2023-04-08T02:30:00;12.50;;;8.93;;
69856;SDS011;57147;53.582;10.112;2023-04-08T02:35:04;11.40;;;9.38;;
69856;SDS011;57147;53.582;10.112;2023-04-08T02:40:21;14.27;;;10.18;;
69856;SDS011;57147;53.582;10.112;2023-04-08T02:45:26;12.35;;;9.23;;
69856;SDS011;57147;53.582;10.112;2023-04-08T02:50:28;12.13;;;6.47;;
69856;SDS011;57147;53.582;10.112;2023-04-08T02:55:29;13.38;;;9.65;;
69856;SDS011;57147;53.582;10.112;2023-04-08T03:00:35;11.45;;;9.32;;
69856;SDS011;57147;53.582;10.112;2023-04-08T03:05:35;17.45;;;10.02;;
69856;SDS011;57147;53.582;10.112;2023-04-08T03:10:36;16.02;;;9.45;;
69856;SDS011;57147;53.582;10.112;2023-04-08T03:15:39;16.33;;;11.35;;
69856;SDS011;57147;53.582;10.112;2023-04-08T03:20:40;14.27;;;10.23;;
69856;SDS011;57147;53.582;10.112;2023-04-08T03:25:41;16.25;;;11.32;;
69856;SDS011;57147;53.582;10.112;2023-04-08T03:30:44;19.63;;;12.35;;
69856;SDS011;57147;53.582;10.112;2023-04-08T03:35:45;24.58;;;13.38;;
69856;SDS011;57147;53.582;10.112;2023-04-08T03:40:45;25.67;;;13.45;;
69856;SDS011;57147;53.582;10.112;2023-04-08T03:45:48;25.10;;;14.90;;
69856;SDS011;57147;53.582;10.112;2023-04-08T03:50:49;26.52;;;15.02;;
69856;SDS011;57147;53.582;10.112;2023-04-08T03:55:49;23.17;;;14.55;;
69856;SDS011;57147;53.582;10.112;2023-04-08T04:00:53;25.73;;;13.95;;
69856;SDS011;57147;53.582;10.112;2023-04-08T04:05:53;25.20;;;15.57;;
69856;SDS011;57147;53.582;10.112;2023-04-08T04:10:54;22.95;;;14.27;;
69856;SDS011;57147;53.582;10.112;2023-04-08T04:15:57;19.30;;;13.43;;
69856;SDS011;57147;53.582;10.112;2023-04-08T04:20:57;23.27;;;13.63;;
69856;SDS011;57147;53.582;10.112;2023-04-08T04:25:58;23.88;;;13.75;;
69856;SDS011;57147;53.582;10.112;2023-04-08T04:31:02;26.33;;;13.35;;
69856;SDS011;57147;53.582;10.112;2023-04-08T04:36:02;20.58;;;12.95;;
69856;SDS011;57147;53.582;10.112;2023-04-08T04:41:03;23.45;;;13.20;;
69856;SDS011;57147;53.582;10.112;2023-04-08T04:46:06;24.30;;;14.07;;
69856;SDS011;57147;53.582;10.112;2023-04-08T04:51:07;20.92;;;13.32;;
69856;SDS011;57147;53.582;10.112;2023-04-08T04:56:08;21.85;;;13.68;;
69856;SDS011;57147;53.582;10.112;2023-04-08T05:01:11;22.98;;;14.25;;
69856;SDS011;57147;53.582;10.112;2023-04-08T05:06:11;22.52;;;13.40;;
69856;SDS011;57147;53.582;10.112;2023-04-08T05:11:12;24.00;;;14.40;;
69856;SDS011;57147;53.582;10.112;2023-04-08T05:16:15;23.92;;;13.43;;
69856;SDS011;57147;53.582;10.112;2023-04-08T05:21:16;23.80;;;13.13;;
69856;SDS011;57147;53.582;10.112;2023-04-08T05:26:16;19.95;;;13.00;;
69856;SDS011;57147;53.582;10.112;2023-04-08T05:31:20;22.08;;;12.75;;
69856;SDS011;57147;53.582;10.112;2023-04-08T05:36:20;14.23;;;10.20;;
69856;SDS011;57147;53.582;10.112;2023-04-08T05:41:21;16.75;;;10.05;;
69856;SDS011;57147;53.582;10.112;2023-04-08T05:46:24;20.83;;;12.20;;
69856;SDS011;57147;53.582;10.112;2023-04-08T05:51:25;19.80;;;10.40;;
69856;SDS011;57147;53.582;10.112;2023-04-08T05:56:25;20.13;;;11.77;;
69856;SDS011;57147;53.582;10.112;2023-04-08T06:01:29;17.73;;;12.13;;
69856;SDS011;57147;53.582;10.112;2023-04-08T06:06:29;19.20;;;11.32;;
69856;SDS011;57147;53.582;10.112;2023-04-08T06:11:30;18.83;;;10.63;;
69856;SDS011;57147;53.582;10.112;2023-04-08T06:16:33;18.95;;;11.45;;
69856;SDS011;57147;53.582;10.112;2023-04-08T06:21:34;20.60;;;12.77;;
69856;SDS011;57147;53.582;10.112;2023-04-08T06:26:34;22.90;;;12.82;;
69856;SDS011;57147;53.582;10.112;2023-04-08T06:31:38;21.13;;;13.20;;
69856;SDS011;57147;53.582;10.112;2023-04-08T06:36:38;22.45;;;13.13;;
69856;SDS011;57147;53.582;10.112;2023-04-08T06:41:39;24.30;;;11.40;;
69856;SDS011;57147;53.582;10.112;2023-04-08T06:46:42;19.65;;;10.88;;
69856;SDS011;57147;53.582;10.112;2023-04-08T06:51:43;21.27;;;11.80;;
69856;SDS011;57147;53.582;10.112;2023-04-08T06:56:44;21.90;;;10.95;;
69856;SDS011;57147;53.582;10.112;2023-04-08T07:01:47;23.38;;;13.57;;
69856;SDS011;57147;53.582;10.112;2023-04-08T07:06:47;22.98;;;13.95;;
69856;SDS011;57147;53.582;10.112;2023-04-08T07:11:48;17.58;;;10.95;;
69856;SDS011;57147;53.582;10.112;2023-04-08T07:16:52;18.35;;;10.23;;
69856;SDS011;57147;53.582;10.112;2023-04-08T07:21:53;16.73;;;10.80;;
69856;SDS011;57147;53.582;10.112;2023-04-08T07:26:53;15.88;;;10.23;;
69856;SDS011;57147;53.582;10.112;2023-04-08T07:31:57;16.92;;;12.23;;
69856;SDS011;57147;53.582;10.112;2023-04-08T07:36:57;13.40;;;7.93;;
69856;SDS011;57147;53.582;10.112;2023-04-08T07:41:58;13.18;;;9.32;;
69856;SDS011;57147;53.582;10.112;2023-04-08T07:47:01;12.48;;;8.85;;
69856;SDS011;57147;53.582;10.112;2023-04-08T07:52:02;13.57;;;10.68;;
69856;SDS011;57147;53.582;10.112;2023-04-08T07:57:03;13.70;;;9.52;;
69856;SDS011;57147;53.582;10.112;2023-04-08T08:02:06;15.43;;;10.60;;
69856;SDS011;57147;53.582;10.112;2023-04-08T08:07:06;16.63;;;10.77;;
69856;SDS011;57147;53.582;10.112;2023-04-08T08:12:07;16.55;;;10.15;;
69856;SDS011;57147;53.582;10.112;2023-04-08T08:17:10;17.75;;;11.32;;
69856;SDS011;57147;53.582;10.112;2023-04-08T08:22:11;19.73;;;10.93;;
69856;SDS011;57147;53.582;10.112;2023-04-08T08:27:12;15.63;;;10.68;;
69856;SDS011;57147;53.582;10.112;2023-04-08T08:32:15;13.77;;;10.18;;
69856;SDS011;57147;53.582;10.112;2023-04-08T08:37:15;13.07;;;8.25;;
69856;SDS011;57147;53.582;10.112;2023-04-08T08:42:19;15.00;;;10.43;;
69856;SDS011;57147;53.582;10.112;2023-04-08T08:47:23;15.02;;;9.27;;
69856;SDS011;57147;53.582;10.112;2023-04-08T08:52:24;15.95;;;11.60;;
69856;SDS011;57147;53.582;10.112;2023-04-08T08:57:25;15.93;;;9.00;;
69856;SDS011;57147;53.582;10.112;2023-04-08T09:02:28;14.88;;;10.73;;
69856;SDS011;57147;53.582;10.112;2023-04-08T09:07:30;14.13;;;10.10;;
69856;SDS011;57147;53.582;10.112;2023-04-08T09:12:35;14.48;;;8.68;;
69856;SDS011;57147;53.582;10.112;2023-04-08T09:17:55;14.90;;;9.82;;
69856;SDS011;57147;53.582;10.112;2023-04-08T09:22:56;13.90;;;10.38;;
69856;SDS011;57147;53.582;10.112;2023-04-08T09:27:58;15.80;;;8.70;;
69856;SDS011;57147;53.582;10.112;2023-04-08T09:33:02;13.18;;;8.88;;
69856;SDS011;57147;53.582;10.112;2023-04-08T09:38:03;16.33;;;10.70;;
69856;SDS011;57147;53.582;10.112;2023-04-08T09:43:04;13.18;;;7.80;;
69856;SDS011;57147;53.582;10.112;2023-04-08T09:48:09;13.90;;;9.68;;
69856;SDS011;57147;53.582;10.112;2023-04-08T09:53:18;13.35;;;9.55;;
69856;SDS011;57147;53.582;10.112;2023-04-08T09:58:21;15.40;;;10.02;;
69856;SDS011;57147;53.582;10.112;2023-04-08T10:03:32;19.45;;;11.85;;
69856;SDS011;57147;53.582;10.112;2023-04-08T10:08:34;17.60;;;11.50;;
69856;SDS011;57147;53.582;10.112;2023-04-08T10:13:35;16.98;;;12.90;;
69856;SDS011;57147;53.582;10.112;2023-04-08T10:18:38;20.75;;;11.63;;
69856;SDS011;57147;53.582;10.112;2023-04-08T10:23:55;19.60;;;12.52;;
69856;SDS011;57147;53.582;10.112;2023-04-08T10:34:17;17.35;;;11.63;;
69856;SDS011;57147;53.582;10.112;2023-04-08T10:39:18;17.25;;;11.82;;
69856;SDS011;57147;53.582;10.112;2023-04-08T10:44:19;35.58;;;20.42;;
69856;SDS011;57147;53.582;10.112;2023-04-08T10:49:23;35.10;;;19.92;;
69856;SDS011;57147;53.582;10.112;2023-04-08T10:54:31;29.23;;;16.50;;
69856;SDS011;57147;53.582;10.112;2023-04-08T10:59:33;21.27;;;12.55;;
69856;SDS011;57147;53.582;10.112;2023-04-08T11:04:40;20.65;;;12.27;;
69856;SDS011;57147;53.582;10.112;2023-04-08T11:09:40;23.17;;;15.52;;
69856;SDS011;57147;53.582;10.112;2023-04-08T11:14:41;16.65;;;12.07;;
69856;SDS011;57147;53.582;10.112;2023-04-08T11:19:44;16.08;;;9.20;;
69856;SDS011;57147;53.582;10.112;2023-04-08T11:24:45;16.33;;;11.63;;
69856;SDS011;57147;53.582;10.112;2023-04-08T11:29:46;71.38;;;37.55;;
69856;SDS011;57147;53.582;10.112;2023-04-08T11:34:49;19.25;;;12.57;;
69856;SDS011;57147;53.582;10.112;2023-04-08T11:39:53;26.45;;;15.07;;
69856;SDS011;57147;53.582;10.112;2023-04-08T11:44:54;17.63;;;11.70;;
69856;SDS011;57147;53.582;10.112;2023-04-08T11:49:58;20.40;;;12.77;;
69856;SDS011;57147;53.582;10.112;2023-04-08T11:55:00;18.75;;;12.48;;
69856;SDS011;57147;53.582;10.112;2023-04-08T12:00:00;18.27;;;12.27;;
69856;SDS011;57147;53.582;10.112;2023-04-08T12:05:07;18.02;;;11.93;;
69856;SDS011;57147;53.582;10.112;2023-04-08T12:10:08;17.00;;;11.88;;
69856;SDS011;57147;53.582;10.112;2023-04-08T12:15:10;18.52;;;12.05;;
69856;SDS011;57147;53.582;10.112;2023-04-08T12:20:13;17.15;;;12.70;;
69856;SDS011;57147;53.582;10.112;2023-04-08T12:25:16;14.70;;;10.98;;
69856;SDS011;57147;53.582;10.112;2023-04-08T12:30:17;14.10;;;10.50;;
69856;SDS011;57147;53.582;10.112;2023-04-08T12:35:21;15.50;;;11.35;;
69856;SDS011;57147;53.582;10.112;2023-04-08T12:40:22;20.83;;;10.75;;
69856;SDS011;57147;53.582;10.112;2023-04-08T12:45:22;17.10;;;12.13;;
69856;SDS011;57147;53.582;10.112;2023-04-08T12:50:26;16.95;;;13.13;;
69856;SDS011;57147;53.582;10.112;2023-04-08T12:55:26;15.98;;;11.75;;
69856;SDS011;57147;53.582;10.112;2023-04-08T13:00:27;14.77;;;11.10;;
69856;SDS011;57147;53.582;10.112;2023-04-08T13:05:30;16.17;;;10.90;;
69856;SDS011;57147;53.582;10.112;2023-04-08T13:10:33;14.95;;;11.73;;
69856;SDS011;57147;53.582;10.112;2023-04-08T13:15:33;14.60;;;11.63;;
69856;SDS011;57147;53.582;10.112;2023-04-08T13:20:37;15.45;;;12.10;;
69856;SDS011;57147;53.582;10.112;2023-04-08T13:25:37;15.63;;;12.20;;
69856;SDS011;57147;53.582;10.112;2023-04-08T13:30:38;17.73;;;12.32;;
69856;SDS011;57147;53.582;10.112;2023-04-08T13:35:41;17.17;;;12.15;;
69856;SDS011;57147;53.582;10.112;2023-04-08T13:40:42;18.50;;;13.32;;
69856;SDS011;57147;53.582;10.112;2023-04-08T13:45:42;16.63;;;12.35;;
69856;SDS011;57147;53.582;10.112;2023-04-08T13:50:46;19.52;;;14.00;;
69856;SDS011;57147;53.582;10.112;2023-04-08T13:55:47;19.25;;;14.35;;
69856;SDS011;57147;53.582;10.112;2023-04-08T14:00:47;18.15;;;13.25;;
69856;SDS011;57147;53.582;10.112;2023-04-08T14:05:51;20.70;;;13.88;;
69856;SDS011;57147;53.582;10.112;2023-04-08T14:10:51;21.98;;;15.63;;
69856;SDS011;57147;53.582;10.112;2023-04-08T14:15:52;19.63;;;14.82;;
69856;SDS011;57147;53.582;10.112;2023-04-08T14:20:57;22.05;;;14.40;;
69856;SDS011;57147;53.582;10.112;2023-04-08T14:25:57;18.98;;;12.77;;
69856;SDS011;57147;53.582;10.112;2023-04-08T14:30:58;22.20;;;15.20;;
69856;SDS011;57147;53.582;10.112;2023-04-08T14:36:15;20.60;;;15.65;;
69856;SDS011;57147;53.582;10.112;2023-04-08T14:41:16;22.17;;;16.10;;
69856;SDS011;57147;53.582;10.112;2023-04-08T14:46:19;20.67;;;14.52;;
69856;SDS011;57147;53.582;10.112;2023-04-08T14:51:22;22.20;;;16.05;;
69856;SDS011;57147;53.582;10.112;2023-04-08T14:56:23;20.55;;;13.50;;
69856;SDS011;57147;53.582;10.112;2023-04-08T15:01:26;22.25;;;16.63;;
69856;SDS011;57147;53.582;10.112;2023-04-08T15:06:30;24.10;;;18.83;;
69856;SDS011;57147;53.582;10.112;2023-04-08T15:11:34;23.45;;;17.13;;
69856;SDS011;57147;53.582;10.112;2023-04-08T15:16:34;26.63;;;18.65;;
69856;SDS011;57147;53.582;10.112;2023-04-08T15:21:38;24.85;;;18.35;;
69856;SDS011;57147;53.582;10.112;2023-04-08T15:26:38;25.23;;;17.13;;
69856;SDS011;57147;53.582;10.112;2023-04-08T15:31:39;23.98;;;17.15;;
69856;SDS011;57147;53.582;10.112;2023-04-08T15:36:43;22.27;;;16.00;;
69856;SDS011;57147;53.582;10.112;2023-04-08T15:41:43;25.92;;;17.45;;
69856;SDS011;57147;53.582;10.112;2023-04-08T15:46:44;23.98;;;17.58;;
69856;SDS011;57147;53.582;10.112;2023-04-08T15:51:49;25.50;;;18.20;;
69856;SDS011;57147;53.582;10.112;2023-04-08T16:01:51;22.45;;;15.63;;
69856;SDS011;57147;53.582;10.112;2023-04-08T16:06:54;26.52;;;17.10;;
69856;SDS011;57147;53.582;10.112;2023-04-08T16:11:55;27.25;;;16.63;;
69856;SDS011;57147;53.582;10.112;2023-04-08T16:16:55;22.77;;;15.88;;
69856;SDS011;57147;53.582;10.112;2023-04-08T16:21:59;25.42;;;17.73;;
69856;SDS011;57147;53.582;10.112;2023-04-08T16:26:59;51.58;;;27.88;;
69856;SDS011;57147;53.582;10.112;2023-04-08T16:32:00;30.02;;;18.50;;
69856;SDS011;57147;53.582;10.112;2023-04-08T16:37:03;31.13;;;22.10;;
69856;SDS011;57147;53.582;10.112;2023-04-08T16:42:04;28.67;;;19.02;;
69856;SDS011;57147;53.582;10.112;2023-04-08T16:47:05;28.88;;;17.63;;
69856;SDS011;57147;53.582;10.112;2023-04-08T16:52:08;40.33;;;25.50;;
69856;SDS011;57147;53.582;10.112;2023-04-08T16:57:09;38.05;;;25.95;;
69856;SDS011;57147;53.582;10.112;2023-04-08T17:02:10;65.97;;;36.30;;
69856;SDS011;57147;53.582;10.112;2023-04-08T17:07:13;34.17;;;23.58;;
69856;SDS011;57147;53.582;10.112;2023-04-08T17:12:14;38.70;;;24.50;;
69856;SDS011;57147;53.582;10.112;2023-04-08T17:17:14;41.17;;;26.63;;
69856;SDS011;57147;53.582;10.112;2023-04-08T17:22:17;38.63;;;24.98;;
69856;SDS011;57147;53.582;10.112;2023-04-08T17:27:18;41.28;;;25.00;;
69856;SDS011;57147;53.582;10.112;2023-04-08T17:32:19;43.95;;;28.85;;
69856;SDS011;57147;53.582;10.112;2023-04-08T17:37:22;41.47;;;27.25;;
69856;SDS011;57147;53.582;10.112;2023-04-08T17:42:22;44.83;;;29.27;;
69856;SDS011;57147;53.582;10.112;2023-04-08T17:47:23;46.60;;;30.40;;
69856;SDS011;57147;53.582;10.112;2023-04-08T17:52:26;42.47;;;29.50;;
69856;SDS011;57147;53.582;10.112;2023-04-08T17:57:27;44.70;;;28.48;;
69856;SDS011;57147;53.582;10.112;2023-04-08T18:02:27;39.70;;;26.27;;
69856;SDS011;57147;53.582;10.112;2023-04-08T18:07:31;40.88;;;30.13;;
69856;SDS011;57147;53.582;10.112;2023-04-08T18:12:31;44.60;;;31.35;;
69856;SDS011;57147;53.582;10.112;2023-04-08T18:17:33;43.45;;;30.52;;
69856;SDS011;57147;53.582;10.112;2023-04-08T18:22:36;48.05;;;32.25;;
69856;SDS011;57147;53.582;10.112;2023-04-08T18:27:37;51.97;;;31.92;;
69856;SDS011;57147;53.582;10.112;2023-04-08T18:32:37;55.80;;;34.58;;
69856;SDS011;57147;53.582;10.112;2023-04-08T18:37:40;58.50;;;35.28;;
69856;SDS011;57147;53.582;10.112;2023-04-08T18:42:41;54.13;;;33.47;;
69856;SDS011;57147;53.582;10.112;2023-04-08T18:47:42;47.55;;;32.75;;
69856;SDS011;57147;53.582;10.112;2023-04-08T18:52:45;51.25;;;34.20;;
69856;SDS011;57147;53.582;10.112;2023-04-08T18:57:45;52.65;;;34.15;;
69856;SDS011;57147;53.582;10.112;2023-04-08T19:02:46;59.88;;;38.72;;
69856;SDS011;57147;53.582;10.112;2023-04-08T19:07:49;60.10;;;38.00;;
69856;SDS011;57147;53.582;10.112;2023-04-08T19:12:50;57.38;;;35.85;;
69856;SDS011;57147;53.582;10.112;2023-04-08T19:17:51;56.47;;;36.40;;
69856;SDS011;57147;53.582;10.112;2023-04-08T19:22:54;52.72;;;33.88;;
69856;SDS011;57147;53.582;10.112;2023-04-08T19:27:54;57.30;;;35.30;;
69856;SDS011;57147;53.582;10.112;2023-04-08T19:32:55;54.90;;;36.50;;
69856;SDS011;57147;53.582;10.112;2023-04-08T19:38:06;54.38;;;32.65;;
69856;SDS011;57147;53.582;10.112;2023-04-08T19:43:07;57.45;;;37.53;;
69856;SDS011;57147;53.582;10.112;2023-04-08T19:48:08;63.10;;;35.72;;
69856;SDS011;57147;53.582;10.112;2023-04-08T19:53:11;79.63;;;45.35;;
69856;SDS011;57147;53.582;10.112;2023-04-08T19:58:12;75.68;;;45.67;;
69856;SDS011;57147;53.582;10.112;2023-04-08T20:03:12;76.95;;;44.88;;
69856;SDS011;57147;53.582;10.112;2023-04-08T20:08:15;75.53;;;43.95;;
69856;SDS011;57147;53.582;10.112;2023-04-08T20:13:16;82.43;;;46.90;;
69856;SDS011;57147;53.582;10.112;2023-04-08T20:18:16;78.13;;;43.22;;
69856;SDS011;57147;53.582;10.112;2023-04-08T20:23:20;72.70;;;45.60;;
69856;SDS011;57147;53.582;10.112;2023-04-08T20:28:20;72.07;;;42.92;;
69856;SDS011;57147;53.582;10.112;2023-04-08T20:33:21;72.32;;;45.25;;
69856;SDS011;57147;53.582;10.112;2023-04-08T20:38:24;63.28;;;40.35;;
69856;SDS011;57147;53.582;10.112;2023-04-08T20:43:25;67.13;;;35.28;;
69856;SDS011;57147;53.582;10.112;2023-04-08T20:48:25;73.07;;;42.60;;
69856;SDS011;57147;53.582;10.112;2023-04-08T20:53:28;74.93;;;41.65;;
69856;SDS011;57147;53.582;10.112;2023-04-08T20:58:29;68.35;;;39.10;;
69856;SDS011;57147;53.582;10.112;2023-04-08T21:03:29;66.55;;;39.55;;
69856;SDS011;57147;53.582;10.112;2023-04-08T21:08:33;70.72;;;39.45;;
69856;SDS011;57147;53.582;10.112;2023-04-08T21:13:34;72.55;;;41.00;;
69856;SDS011;57147;53.582;10.112;2023-04-08T21:18:36;68.97;;;39.75;;
69856;SDS011;57147;53.582;10.112;2023-04-08T21:23:40;75.88;;;40.80;;
69856;SDS011;57147;53.582;10.112;2023-04-08T21:28:41;78.05;;;40.35;;
69856;SDS011;57147;53.582;10.112;2023-04-08T21:33:41;76.53;;;40.97;;
69856;SDS011;57147;53.582;10.112;2023-04-08T21:38:45;71.90;;;40.65;;
69856;SDS011;57147;53.582;10.112;2023-04-08T21:43:45;77.63;;;41.80;;
69856;SDS011;57147;53.582;10.112;2023-04-08T21:48:46;67.28;;;37.88;;
69856;SDS011;57147;53.582;10.112;2023-04-08T21:53:49;65.97;;;35.65;;
69856;SDS011;57147;53.582;10.112;2023-04-08T21:58:49;72.22;;;38.75;;
69856;SDS011;57147;53.582;10.112;2023-04-08T22:03:50;64.10;;;35.80;;
69856;SDS011;57147;53.582;10.112;2023-04-08T22:08:53;69.85;;;37.60;;
69856;SDS011;57147;53.582;10.112;2023-04-08T22:13:54;71.50;;;39.28;;
69856;SDS011;57147;53.582;10.112;2023-04-08T22:18:54;71.63;;;39.03;;
69856;SDS011;57147;53.582;10.112;2023-04-08T22:23:57;60.95;;;34.95;;
69856;SDS011;57147;53.582;10.112;2023-04-08T22:28:58;64.25;;;35.33;;
69856;SDS011;57147;53.582;10.112;2023-04-08T22:33:59;63.45;;;35.70;;
69856;SDS011;57147;53.582;10.112;2023-04-08T22:39:02;65.97;;;36.67;;
69856;SDS011;57147;53.582;10.112;2023-04-08T22:44:03;65.10;;;35.30;;
69856;SDS011;57147;53.582;10.112;2023-04-08T22:49:03;56.75;;;32.25;;
69856;SDS011;57147;53.582;10.112;2023-04-08T22:54:07;58.47;;;31.67;;
69856;SDS011;57147;53.582;10.112;2023-04-08T22:59:07;59.75;;;33.35;;
69856;SDS011;57147;53.582;10.112;2023-04-08T23:04:08;72.95;;;40.72;;
69856;SDS011;57147;53.582;10.112;2023-04-08T23:09:11;71.60;;;39.60;;
69856;SDS011;57147;53.582;10.112;2023-04-08T23:14:15;63.60;;;37.03;;
69856;SDS011;57147;53.582;10.112;2023-04-08T23:19:16;64.00;;;37.38;;
69856;SDS011;57147;53.582;10.112;2023-04-08T23:24:19;64.07;;;32.97;;
69856;SDS011;57147;53.582;10.112;2023-04-08T23:29:19;66.85;;;37.60;;
69856;SDS011;57147;53.582;10.112;2023-04-08T23:34:20;77.80;;;42.13;;
69856;SDS011;57147;53.582;10.112;2023-04-08T23:39:23;86.10;;;48.85;;
69856;SDS011;57147;53.582;10.112;2023-04-08T23:44:24;74.88;;;40.65;;
69856;SDS011;57147;53.582;10.112;2023-04-08T23:49:24;74.43;;;40.70;;
69856;SDS011;57147;53.582;10.112;2023-04-08T23:54:27;75.35;;;39.85;;
69856;SDS011;57147;53.582;10.112;2023-04-08T23:59:28;77.78;;;38.78;;
